Time;durP1;ratioP1;P1;durP2;ratioP2;P2;SDS_P1;SDS_P2;PMS_P1;PMS_P2;Temp;Humidity;BMP_temperature;BMP_pressure;BME280_temperature;BME280_humidity;BME280_pressure;Samples;Min_cycle;Max_cycle;Signal;HPM_P1;HPM_P2
2023/01/28 00:01:12;;;;;;;46.38;22.33;;;25.90;99.90;;;;;;5033284;28;20017;-71
2023/01/28 00:03:39;;;;;;;45.08;20.73;;;25.90;99.90;;;;;;5033054;28;20069;-72
2023/01/28 00:06:07;;;;;;;42.42;23.02;;;25.90;99.90;;;;;;5033047;28;20022;-72
2023/01/28 00:08:34;;;;;;;37.22;20.17;;;25.90;99.90;;;;;;5033213;28;20022;-71
2023/01/28 00:11:02;;;;;;;41.40;24.30;;;25.80;99.90;;;;;;5033182;28;20041;-72
2023/01/28 00:13:30;;;;;;;38.50;23.77;;;25.90;99.90;;;;;;5032939;28;20096;-72
2023/01/28 00:16:03;;;;;;;56.70;33.47;;;25.80;99.90;;;;;;5033416;28;20025;-72
2023/01/28 00:18:31;;;;;;;86.30;56.47;;;25.90;99.90;;;;;;5032979;28;20391;-70
2023/01/28 00:21:03;;;;;;;56.22;33.42;;;26.00;99.90;;;;;;5033146;28;20429;-68
2023/01/28 00:23:33;;;;;;;40.35;24.80;;;26.00;99.90;;;;;;5032966;28;20040;-68
2023/01/28 00:26:03;;;;;;;46.03;25.30;;;26.10;99.90;;;;;;5033041;28;20101;-69
2023/01/28 00:28:30;;;;;;;49.08;28.27;;;26.10;99.90;;;;;;5033022;28;20022;-68
2023/01/28 00:30:56;;;;;;;47.42;29.73;;;26.10;99.90;;;;;;5033082;28;20032;-68
2023/01/28 00:33:23;;;;;;;49.60;29.20;;;26.10;99.90;;;;;;5032709;28;20033;-68
2023/01/28 00:35:59;;;;;;;48.97;32.78;;;26.10;99.90;;;;;;5032678;28;20407;-68
2023/01/28 00:38:26;;;;;;;50.22;31.85;;;26.10;99.90;;;;;;5033035;28;20029;-69
2023/01/28 00:40:52;;;;;;;48.25;30.60;;;26.10;99.90;;;;;;5036335;28;20022;-68
2023/01/28 00:43:19;;;;;;;52.90;32.83;;;26.10;99.90;;;;;;5036715;28;20063;-68
2023/01/28 00:45:46;;;;;;;45.10;32.25;;;26.10;99.90;;;;;;5036531;28;20083;-68
2023/01/28 00:48:13;;;;;;;48.53;33.05;;;26.20;99.90;;;;;;5036319;28;20033;-69
2023/01/28 00:50:40;;;;;;;59.53;33.53;;;26.20;99.90;;;;;;5036355;28;20534;-69
2023/01/28 00:53:06;;;;;;;57.97;33.53;;;26.20;99.90;;;;;;5036245;28;20037;-69
2023/01/28 00:55:33;;;;;;;66.60;38.05;;;26.20;99.90;;;;;;5036029;28;20029;-69
2023/01/28 00:57:59;;;;;;;58.50;37.00;;;26.30;99.90;;;;;;5036178;28;20026;-69
2023/01/28 01:00:26;;;;;;;52.83;34.50;;;26.30;99.90;;;;;;5036209;28;20377;-69
2023/01/28 01:02:53;;;;;;;58.90;40.58;;;26.40;99.90;;;;;;5036139;28;20104;-68
2023/01/28 01:05:19;;;;;;;199.77;121.38;;;26.40;99.90;;;;;;5036163;28;20017;-68
2023/01/28 01:07:45;;;;;;;148.02;90.55;;;26.50;99.90;;;;;;5036337;28;20022;-68
2023/01/28 01:10:18;;;;;;;118.03;70.75;;;26.50;99.90;;;;;;5036069;28;20021;-68
2023/01/28 01:12:49;;;;;;;108.35;73.10;;;26.50;99.90;;;;;;5036079;28;20072;-69
2023/01/28 01:15:16;;;;;;;101.63;63.97;;;26.50;99.90;;;;;;5034904;28;20374;-69
2023/01/28 01:17:45;;;;;;;73.28;49.53;;;26.60;99.90;;;;;;5035779;28;20516;-69
2023/01/28 01:20:20;;;;;;;48.90;30.10;;;26.60;99.90;;;;;;5035946;28;20091;-69
2023/01/28 01:22:47;;;;;;;136.65;93.72;;;26.60;99.90;;;;;;5035834;28;20029;-69
2023/01/28 01:25:16;;;;;;;82.15;53.95;;;26.50;99.90;;;;;;5035955;28;20034;-69
2023/01/28 01:27:44;;;;;;;71.60;50.03;;;26.60;99.90;;;;;;5035796;28;20033;-68
2023/01/28 01:30:12;;;;;;;102.20;71.05;;;26.70;99.90;;;;;;5035561;28;20076;-68
2023/01/28 01:32:38;;;;;;;54.42;37.53;;;26.70;99.90;;;;;;5035679;28;20040;-67
2023/01/28 01:35:07;;;;;;;48.28;30.65;;;26.70;99.90;;;;;;5035594;28;20128;-68
2023/01/28 01:37:34;;;;;;;60.65;38.08;;;26.80;99.90;;;;;;5035488;28;20041;-71
2023/01/28 01:40:03;;;;;;;90.93;48.28;;;26.80;99.90;;;;;;5035695;28;20048;-71
2023/01/28 01:42:33;;;;;;;67.72;43.35;;;26.80;99.90;;;;;;5035737;28;20147;-71
2023/01/28 01:45:01;;;;;;;41.08;27.58;;;26.80;99.90;;;;;;5035240;28;20082;-71
2023/01/28 01:47:54;;;;;;;120.90;53.53;;;26.90;99.90;;;;;;5046782;28;20048;-71
2023/01/28 01:50:37;;;;;;;104.47;62.33;;;26.90;99.90;;;;;;5035052;28;20025;-69
2023/01/28 01:53:18;;;;;;;168.88;115.32;;;26.90;99.90;;;;;;5035576;28;20069;-68
2023/01/28 01:55:49;;;;;;;69.95;47.22;;;27.00;99.90;;;;;;5035247;28;20022;-69
2023/01/28 01:58:20;;;;;;;53.65;35.15;;;27.10;99.90;;;;;;5035204;28;20021;-69
2023/01/28 02:00:47;;;;;;;68.30;44.88;;;27.10;99.90;;;;;;5035028;28;20026;-68
2023/01/28 02:03:16;;;;;;;59.83;38.28;;;27.10;99.90;;;;;;5035059;28;20028;-69
2023/01/28 02:05:42;;;;;;;62.63;41.13;;;27.20;99.90;;;;;;5035014;28;20029;-69
2023/01/28 02:08:21;;;;;;;47.97;31.13;;;27.20;99.90;;;;;;5034800;28;20048;-69
2023/01/28 02:10:53;;;;;;;48.85;30.00;;;27.20;99.90;;;;;;5034967;28;20029;-69
2023/01/28 02:13:24;;;;;;;35.58;22.02;;;27.30;99.90;;;;;;5035064;28;20026;-69
2023/01/28 02:15:51;;;;;;;32.97;22.93;;;27.30;99.90;;;;;;5035055;28;20030;-69
2023/01/28 02:18:18;;;;;;;36.15;23.83;;;27.30;99.90;;;;;;5034796;28;20143;-69
2023/01/28 02:21:06;;;;;;;36.97;21.58;;;27.30;99.90;;;;;;5034822;28;20359;-69
2023/01/28 02:23:47;;;;;;;35.22;23.23;;;27.40;99.90;;;;;;5034911;28;20032;-69
2023/01/28 02:26:35;;;;;;;38.10;24.90;;;27.40;99.90;;;;;;5034773;28;20064;-69
2023/01/28 02:29:31;;;;;;;37.05;24.60;;;27.40;99.90;;;;;;5042657;28;20065;-69
2023/01/28 02:32:32;;;;;;;29.20;21.02;;;27.50;99.90;;;;;;5054742;28;20025;-69
2023/01/28 02:35:30;;;;;;;38.67;22.20;;;27.50;99.90;;;;;;5054237;28;20504;-69
2023/01/28 02:38:06;;;;;;;59.45;39.80;;;27.60;99.90;;;;;;5054704;28;20035;-69
2023/01/28 02:41:00;;;;;;;49.88;33.03;;;27.70;99.90;;;;;;5054450;28;20027;-68
2023/01/28 02:43:39;;;;;;;39.35;25.98;;;27.80;99.90;;;;;;5054042;28;20108;-69
2023/01/28 02:49:01;;;;;;;38.28;26.60;;;27.90;99.90;;;;;;5054177;28;20036;-69
2023/01/28 02:51:49;;;;;;;36.28;21.38;;;27.90;99.90;;;;;;5054518;28;20040;-69
2023/01/28 02:55:01;;;;;;;31.00;20.38;;;28.00;99.90;;;;;;5054127;28;20027;-71
2023/01/28 02:57:28;;;;;;;41.20;24.83;;;28.10;99.90;;;;;;5045661;28;20048;-71
2023/01/28 03:00:17;;;;;;;24.52;17.50;;;28.10;99.90;;;;;;5054291;28;20074;-70
2023/01/28 03:02:53;;;;;;;29.00;19.27;;;28.10;99.90;;;;;;5053335;28;20025;-71
2023/01/28 03:05:37;;;;;;;29.17;17.92;;;28.20;99.90;;;;;;5054114;28;20466;-70
2023/01/28 03:09:21;;;;;;;23.95;16.83;;;28.30;99.90;;;;;;5053812;28;20481;-70
2023/01/28 03:36:48;;;;;;;16.55;13.38;;;28.90;99.90;;;;;;5053855;28;20072;-72
2023/01/28 03:39:21;;;;;;;15.80;10.27;;;29.00;99.90;;;;;;5053461;28;20087;-74
2023/01/28 03:42:08;;;;;;;22.42;12.23;;;29.00;99.90;;;;;;5053353;28;20366;-73
2023/01/28 03:44:54;;;;;;;15.20;9.13;;;29.00;99.90;;;;;;5053410;28;20021;-72
2023/01/28 03:47:23;;;;;;;18.33;9.65;;;29.10;99.90;;;;;;5053568;28;20036;-69
2023/01/28 03:49:52;;;;;;;13.95;8.18;;;29.10;99.90;;;;;;5053426;28;20025;-74
2023/01/28 03:52:21;;;;;;;18.55;9.18;;;29.20;99.90;;;;;;5053218;28;20036;-75
2023/01/28 03:54:48;;;;;;;16.75;9.50;;;29.40;99.90;;;;;;5053344;28;20049;-75
2023/01/28 03:57:16;;;;;;;13.60;9.98;;;29.60;99.90;;;;;;5047126;28;20033;-75
2023/01/28 03:59:43;;;;;;;15.68;8.68;;;29.80;99.90;;;;;;5041211;28;20033;-73
2023/01/28 04:02:11;;;;;;;16.70;10.52;;;29.80;99.90;;;;;;5033413;28;20018;-77
2023/01/28 04:04:38;;;;;;;23.98;12.43;;;29.80;99.90;;;;;;5033270;28;20470;-76
2023/01/28 04:07:09;;;;;;;10.93;7.90;;;29.80;99.90;;;;;;5033009;28;20026;-74
2023/01/28 04:09:39;;;;;;;16.38;8.18;;;29.80;99.90;;;;;;5033143;28;20026;-76
2023/01/28 04:12:06;;;;;;;12.52;8.25;;;29.80;99.90;;;;;;5033047;28;20025;-76
2023/01/28 04:14:32;;;;;;;19.02;9.52;;;29.70;99.90;;;;;;5036939;28;20382;-75
2023/01/28 04:16:59;;;;;;;20.30;10.48;;;29.70;99.90;;;;;;5047618;28;20032;-73
2023/01/28 04:19:27;;;;;;;14.57;10.85;;;29.80;99.90;;;;;;5055569;28;20017;-76
2023/01/28 04:21:54;;;;;;;17.85;10.18;;;29.90;99.90;;;;;;5053865;28;20124;-75
2023/01/28 04:24:22;;;;;;;16.17;8.32;;;29.90;99.90;;;;;;5055893;28;20017;-75
2023/01/28 04:26:49;;;;;;;12.45;7.78;;;29.90;99.90;;;;;;5055351;28;20049;-75
2023/01/28 04:29:15;;;;;;;11.18;7.82;;;29.80;99.90;;;;;;5055381;28;20071;-73
2023/01/28 04:31:42;;;;;;;16.63;8.88;;;29.70;99.90;;;;;;5053974;28;20293;-72
2023/01/28 04:34:08;;;;;;;15.82;8.13;;;29.80;99.90;;;;;;5055290;28;20388;-73
2023/01/28 04:36:35;;;;;;;19.27;9.18;;;29.80;99.90;;;;;;5055914;28;20412;-72
2023/01/28 04:39:02;;;;;;;17.77;8.70;;;29.90;99.90;;;;;;5056066;28;20017;-72
2023/01/28 04:41:28;;;;;;;15.48;7.80;;;29.90;99.90;;;;;;5055814;28;20478;-73
2023/01/28 04:43:55;;;;;;;19.55;8.43;;;30.00;99.90;;;;;;5055505;28;20033;-72
2023/01/28 04:46:21;;;;;;;13.95;7.97;;;30.00;99.90;;;;;;5055725;28;20025;-71
2023/01/28 04:48:48;;;;;;;16.00;7.75;;;30.10;99.90;;;;;;5055817;28;20156;-72
2023/01/28 04:51:14;;;;;;;14.95;7.85;;;30.20;99.90;;;;;;5055221;28;20036;-72
2023/01/28 04:53:41;;;;;;;16.48;7.95;;;30.20;99.90;;;;;;5055887;28;20270;-72
2023/01/28 04:56:07;;;;;;;14.70;7.20;;;30.30;99.90;;;;;;5055435;28;20036;-72
2023/01/28 04:58:34;;;;;;;12.02;6.47;;;30.30;99.90;;;;;;5055717;28;20023;-71
2023/01/28 05:01:01;;;;;;;9.60;6.45;;;30.50;99.90;;;;;;5055363;28;20021;-70
2023/01/28 05:03:27;;;;;;;15.00;7.95;;;30.50;99.90;;;;;;5055468;28;20605;-70
2023/01/28 05:05:54;;;;;;;14.32;8.00;;;30.50;99.90;;;;;;5054984;28;20029;-72
2023/01/28 05:08:20;;;;;;;9.93;7.28;;;30.40;99.90;;;;;;5054675;28;20127;-72
2023/01/28 05:10:47;;;;;;;14.45;7.00;;;30.50;99.90;;;;;;5043404;28;20289;-72
2023/01/28 05:13:13;;;;;;;13.80;10.55;;;30.50;99.90;;;;;;5052352;28;20040;-71
2023/01/28 05:15:43;;;;;;;17.23;11.93;;;30.50;99.90;;;;;;5054570;28;20553;-72
2023/01/28 05:18:09;;;;;;;11.77;6.88;;;30.60;99.90;;;;;;5054124;28;20027;-73
2023/01/28 05:20:36;;;;;;;13.55;7.40;;;30.60;99.90;;;;;;5053080;28;20029;-74
2023/01/28 05:23:02;;;;;;;17.45;9.93;;;30.50;99.90;;;;;;5055178;28;20444;-75
2023/01/28 05:25:29;;;;;;;17.80;10.73;;;30.50;99.90;;;;;;5041169;28;20371;-75
2023/01/28 05:27:55;;;;;;;22.10;11.80;;;30.50;99.90;;;;;;5043077;28;20473;-74
2023/01/28 05:30:22;;;;;;;21.02;8.80;;;30.50;99.90;;;;;;5045791;28;20030;-74
2023/01/28 05:32:49;;;;;;;19.45;9.98;;;30.60;99.90;;;;;;5043867;28;20013;-74
2023/01/28 05:35:15;;;;;;;14.73;8.10;;;30.50;99.90;;;;;;5054886;28;20045;-73
2023/01/28 05:37:42;;;;;;;15.23;7.40;;;30.50;99.90;;;;;;5054948;28;20078;-74
2023/01/28 05:40:09;;;;;;;13.77;7.28;;;30.50;99.90;;;;;;5054874;28;20017;-74
2023/01/28 05:42:35;;;;;;;11.57;6.55;;;30.60;99.90;;;;;;5054766;28;20382;-74
2023/01/28 05:45:02;;;;;;;18.05;7.38;;;30.80;99.90;;;;;;5054638;28;20048;-74
2023/01/28 05:47:29;;;;;;;9.40;6.43;;;30.90;99.90;;;;;;5054598;28;20017;-74
2023/01/28 05:49:55;;;;;;;15.25;7.25;;;31.00;99.90;;;;;;5043857;28;20533;-74
2023/01/28 05:52:22;;;;;;;13.45;7.35;;;31.00;99.90;;;;;;5039579;28;20029;-75
2023/01/28 05:54:48;;;;;;;12.77;8.00;;;31.10;99.90;;;;;;5043036;28;20048;-73
2023/01/28 05:57:15;;;;;;;16.52;8.25;;;31.10;99.90;;;;;;5056108;28;20062;-76
2023/01/28 05:59:41;;;;;;;10.57;7.57;;;31.20;99.90;;;;;;5055181;28;20017;-75
2023/01/28 06:02:08;;;;;;;13.93;7.97;;;31.20;99.90;;;;;;5055029;28;20481;-74
2023/01/28 06:04:34;;;;;;;11.02;7.53;;;31.30;99.90;;;;;;5054826;28;20028;-75
2023/01/28 06:07:01;;;;;;;12.63;8.73;;;31.30;99.90;;;;;;5054653;28;20016;-76
2023/01/28 06:09:27;;;;;;;13.25;8.38;;;31.30;99.90;;;;;;5054728;28;20033;-75
2023/01/28 06:11:54;;;;;;;18.50;8.05;;;31.30;99.90;;;;;;5054191;28;20029;-76
2023/01/28 06:14:20;;;;;;;12.10;7.43;;;31.40;99.90;;;;;;5053094;28;20444;-75
2023/01/28 06:16:47;;;;;;;22.10;13.15;;;31.40;99.90;;;;;;5054030;28;20040;-76
2023/01/28 06:19:13;;;;;;;14.63;10.35;;;31.40;99.90;;;;;;5054517;28;20056;-77
2023/01/28 06:21:42;;;;;;;12.52;8.00;;;31.50;99.90;;;;;;5044743;28;20104;-76
2023/01/28 06:24:08;;;;;;;12.88;8.10;;;31.50;99.90;;;;;;5046815;28;20022;-75
2023/01/28 06:26:35;;;;;;;12.40;6.65;;;31.60;99.90;;;;;;5073369;28;20073;-75
2023/01/28 06:29:01;;;;;;;13.82;7.35;;;31.60;99.90;;;;;;5043229;28;20164;-76
2023/01/28 06:31:28;;;;;;;13.13;6.53;;;31.60;99.90;;;;;;5041394;28;20045;-74
2023/01/28 06:33:55;;;;;;;20.45;16.45;;;31.70;99.90;;;;;;5034717;28;20293;-76
2023/01/28 06:36:21;;;;;;;24.73;17.10;;;31.70;99.90;;;;;;5052990;28;20529;-77
2023/01/28 06:38:48;;;;;;;13.45;9.45;;;31.70;99.90;;;;;;5054137;28;20032;-76
2023/01/28 06:41:14;;;;;;;13.43;7.95;;;31.70;99.90;;;;;;5054113;28;20373;-76
2023/01/28 06:43:41;;;;;;;10.73;6.60;;;31.80;99.90;;;;;;5054089;28;20013;-77
2023/01/28 06:46:07;;;;;;;10.85;6.80;;;31.70;99.90;;;;;;5053915;28;20112;-76
2023/01/28 06:48:34;;;;;;;13.30;8.73;;;31.90;99.90;;;;;;5053985;28;20025;-75
2023/01/28 06:51:00;;;;;;;16.13;7.07;;;31.90;99.90;;;;;;5054179;28;20385;-76
2023/01/28 06:53:27;;;;;;;20.35;9.13;;;31.90;99.90;;;;;;5053878;28;20021;-75
2023/01/28 06:55:53;;;;;;;9.88;7.35;;;31.90;99.90;;;;;;5069311;28;20071;-76
2023/01/28 06:58:20;;;;;;;14.07;7.80;;;31.90;99.90;;;;;;5073976;28;20024;-76
2023/01/28 07:00:47;;;;;;;18.40;13.18;;;32.00;99.90;;;;;;5073728;28;20049;-76
2023/01/28 07:03:13;;;;;;;11.43;8.13;;;32.00;99.90;;;;;;5073910;28;20114;-76
2023/01/28 07:05:40;;;;;;;12.15;8.20;;;32.00;99.90;;;;;;5060170;28;20485;-76
2023/01/28 07:08:06;;;;;;;15.15;7.57;;;31.90;99.90;;;;;;5053645;28;20025;-75
2023/01/28 07:10:33;;;;;;;13.95;7.70;;;31.90;99.90;;;;;;5053773;28;20079;-75
2023/01/28 07:13:00;;;;;;;12.05;8.15;;;32.00;99.90;;;;;;5066460;28;20028;-74
2023/01/28 07:15:26;;;;;;;14.82;8.88;;;32.10;99.90;;;;;;5073268;28;20025;-76
2023/01/28 07:17:53;;;;;;;19.67;9.40;;;32.10;99.90;;;;;;5073367;28;20111;-75
2023/01/28 07:20:21;;;;;;;12.15;9.05;;;32.10;99.90;;;;;;5073102;28;20095;-75
2023/01/28 07:22:47;;;;;;;19.50;14.10;;;32.10;99.90;;;;;;5061752;28;20029;-75
2023/01/28 07:25:14;;;;;;;8.98;6.57;;;32.20;99.90;;;;;;5053352;28;20065;-73
2023/01/28 07:27:52;;;;;;;12.13;7.07;;;32.10;99.90;;;;;;5053465;28;20083;-75
2023/01/28 07:30:20;;;;;;;8.90;6.72;;;32.10;99.90;;;;;;5053350;28;20367;-76
2023/01/28 07:32:51;;;;;;;15.63;7.70;;;32.10;99.90;;;;;;5063867;28;20111;-77
2023/01/28 07:35:18;;;;;;;10.93;6.82;;;32.20;99.90;;;;;;5065271;28;20048;-74
2023/01/28 07:37:54;;;;;;;13.13;6.47;;;32.10;99.90;;;;;;5053413;28;20025;-75
2023/01/28 07:40:21;;;;;;;14.57;7.57;;;32.20;99.90;;;;;;5054909;28;20514;-75
2023/01/28 07:42:48;;;;;;;12.23;7.65;;;32.20;99.90;;;;;;5053516;28;20025;-74
2023/01/28 07:45:15;;;;;;;14.27;8.63;;;32.30;99.90;;;;;;5055288;28;20044;-71
2023/01/28 07:47:42;;;;;;;13.27;7.43;;;32.50;99.90;;;;;;5059111;28;20020;-74
2023/01/28 07:50:10;;;;;;;25.50;9.38;;;32.50;99.90;;;;;;5053182;28;20017;-77
2023/01/28 07:52:43;;;;;;;13.38;7.45;;;32.60;99.90;;;;;;5050388;28;20032;-76
2023/01/28 07:55:14;;;;;;;18.88;12.50;;;32.70;99.90;;;;;;5054696;28;20024;-73
2023/01/28 07:58:01;;;;;;;12.02;8.82;;;32.70;99.90;;;;;;5053057;28;20025;-74
2023/01/28 08:00:30;;;;;;;14.98;7.47;;;32.70;99.90;;;;;;5051225;28;20025;-73
2023/01/28 08:03:02;;;;;;;13.98;8.20;;;32.80;99.90;;;;;;5058728;28;20033;-72
2023/01/28 08:05:42;;;;;;;8.75;6.88;;;32.70;99.90;;;;;;5052346;28;20025;-73
2023/01/28 08:08:09;;;;;;;17.00;8.93;;;32.70;99.90;;;;;;5085859;28;20433;-74
2023/01/28 08:10:37;;;;;;;20.45;15.68;;;32.60;99.90;;;;;;5052567;28;20013;-74
2023/01/28 08:13:04;;;;;;;18.58;11.02;;;32.50;99.90;;;;;;5053911;28;20025;-75
2023/01/28 08:15:31;;;;;;;19.10;12.48;;;32.50;99.90;;;;;;5049502;28;20017;-71
2023/01/28 08:17:58;;;;;;;13.27;8.10;;;32.40;99.90;;;;;;5053438;28;20031;-71
2023/01/28 08:20:27;;;;;;;10.73;7.70;;;32.40;99.90;;;;;;5051730;28;20021;-73
2023/01/28 08:22:53;;;;;;;20.70;11.38;;;32.40;99.90;;;;;;5049923;28;20025;-72
2023/01/28 08:25:20;;;;;;;38.55;30.58;;;32.50;99.90;;;;;;5049736;28;20033;-72
2023/01/28 08:27:46;;;;;;;24.98;16.17;;;32.40;99.90;;;;;;5051929;28;20021;-74
2023/01/28 08:30:13;;;;;;;30.45;20.05;;;32.40;99.90;;;;;;5046296;28;20476;-73
2023/01/28 08:32:40;;;;;;;16.17;9.80;;;32.30;99.90;;;;;;5043089;28;20021;-74
2023/01/28 08:35:06;;;;;;;24.58;14.77;;;32.30;99.90;;;;;;5053581;28;20044;-74
2023/01/28 08:37:33;;;;;;;18.40;11.50;;;32.30;99.90;;;;;;5052439;28;20071;-74
2023/01/28 08:39:59;;;;;;;21.77;9.73;;;32.30;99.90;;;;;;5053861;28;20024;-73
2023/01/28 08:42:26;;;;;;;15.43;9.40;;;32.30;99.90;;;;;;5048386;28;20036;-74
2023/01/28 08:44:52;;;;;;;15.30;8.88;;;32.30;99.90;;;;;;5046873;28;20020;-74
2023/01/28 08:47:19;;;;;;;15.43;7.55;;;32.30;99.90;;;;;;5049468;28;20029;-73
2023/01/28 08:49:46;;;;;;;13.05;8.32;;;32.30;99.90;;;;;;5052392;28;20032;-72
2023/01/28 08:52:12;;;;;;;13.05;8.30;;;32.40;99.90;;;;;;5056471;28;20032;-72
2023/01/28 08:54:39;;;;;;;15.60;10.55;;;32.50;99.90;;;;;;5055956;28;20025;-73
2023/01/28 08:57:05;;;;;;;13.48;7.38;;;32.50;99.90;;;;;;5053581;28;20032;-74
2023/01/28 08:59:32;;;;;;;10.85;8.02;;;32.60;99.90;;;;;;5054482;28;20076;-72
2023/01/28 09:01:58;;;;;;;20.00;8.00;;;32.60;99.90;;;;;;5059053;28;20535;-76
2023/01/28 09:04:25;;;;;;;15.93;12.70;;;32.50;99.90;;;;;;5056794;28;20029;-75
2023/01/28 09:06:52;;;;;;;23.48;8.55;;;32.50;99.90;;;;;;5055161;28;20029;-74
2023/01/28 09:09:19;;;;;;;14.68;8.57;;;32.30;99.90;;;;;;5053547;28;20025;-74
2023/01/28 09:11:45;;;;;;;14.07;7.95;;;31.90;99.90;;;;;;5056987;28;20490;-74
2023/01/28 09:14:12;;;;;;;17.08;8.88;;;31.50;99.90;;;;;;5049938;28;20098;-73
2023/01/28 09:16:39;;;;;;;17.13;7.78;;;31.00;99.90;;;;;;5053789;28;20057;-73
2023/01/28 09:19:05;;;;;;;39.53;26.15;;;30.70;99.90;;;;;;5067677;28;20500;-74
2023/01/28 09:21:32;;;;;;;30.10;22.38;;;30.30;99.90;;;;;;5076171;28;20031;-72
2023/01/28 09:23:58;;;;;;;86.53;64.00;;;30.00;99.90;;;;;;5059020;28;20028;-74
2023/01/28 09:26:25;;;;;;;22.30;14.52;;;30.00;99.90;;;;;;5055591;28;20500;-72
2023/01/28 09:28:51;;;;;;;18.95;11.45;;;30.10;99.90;;;;;;5063714;28;20463;-70
2023/01/28 09:31:18;;;;;;;20.42;10.13;;;30.00;99.90;;;;;;5071181;28;20074;-70
2023/01/28 09:33:46;;;;;;;18.58;11.23;;;29.80;99.90;;;;;;5071571;28;20372;-70
2023/01/28 09:36:12;;;;;;;40.40;31.08;;;29.70;99.90;;;;;;5075183;28;20073;-68
2023/01/28 09:38:39;;;;;;;46.05;38.78;;;29.60;99.90;;;;;;5075081;28;20469;-69
2023/01/28 09:41:30;;;;;;;59.95;46.20;;;29.50;99.90;;;;;;5064638;28;20029;-69
2023/01/28 09:44:14;;;;;;;39.77;31.63;;;29.50;99.90;;;;;;5050886;28;20018;-71
2023/01/28 09:46:44;;;;;;;106.35;76.60;;;29.60;99.90;;;;;;5075240;28;20027;-72
2023/01/28 09:49:17;;;;;;;29.23;19.52;;;29.60;99.90;;;;;;5057379;28;20051;-71
2023/01/28 09:51:54;;;;;;;30.20;18.42;;;29.60;99.90;;;;;;5055651;28;20031;-71
2023/01/28 09:55:01;;;;;;;25.67;15.75;;;29.70;99.90;;;;;;5055269;28;20019;-71
2023/01/28 09:57:50;;;;;;;27.80;17.60;;;29.70;99.90;;;;;;5047448;28;20048;-71
2023/01/28 10:03:41;;;;;;;27.00;17.17;;;29.70;99.90;;;;;;5054273;28;20032;-71
2023/01/28 10:06:13;;;;;;;45.50;31.48;;;29.90;99.90;;;;;;5054624;28;20094;-71
2023/01/28 10:09:04;;;;;;;46.20;33.90;;;29.70;99.90;;;;;;5064290;28;20113;-71
2023/01/28 10:11:38;;;;;;;38.60;26.08;;;29.60;99.90;;;;;;5054708;28;20064;-71
2023/01/28 10:14:12;;;;;;;36.75;23.42;;;29.70;99.90;;;;;;5054658;28;20470;-70
2023/01/28 10:16:51;;;;;;;36.30;25.33;;;29.80;99.90;;;;;;5054658;28;20037;-71
2023/01/28 10:19:43;;;;;;;43.80;29.98;;;29.80;99.90;;;;;;5057834;28;20050;-69
2023/01/28 10:22:18;;;;;;;47.10;32.08;;;29.80;99.90;;;;;;5054149;28;20477;-69
2023/01/28 10:24:54;;;;;;;50.75;32.20;;;29.80;99.90;;;;;;5053736;28;20068;-71
2023/01/28 10:27:23;;;;;;;58.63;39.80;;;29.90;99.90;;;;;;5051769;28;20069;-70
2023/01/28 10:29:51;;;;;;;50.35;35.17;;;29.90;99.90;;;;;;5051477;28;20031;-69
2023/01/28 10:32:18;;;;;;;43.47;32.83;;;29.90;99.90;;;;;;5050722;28;20029;-71
2023/01/28 10:34:45;;;;;;;43.80;32.30;;;29.80;99.90;;;;;;5053017;28;20048;-70
2023/01/28 10:37:14;;;;;;;44.38;33.55;;;29.90;99.90;;;;;;5055386;28;20390;-70
2023/01/28 10:39:41;;;;;;;45.22;27.00;;;29.90;99.90;;;;;;5053046;28;20378;-69
2023/01/28 10:42:17;;;;;;;31.08;21.50;;;30.00;99.90;;;;;;5054920;28;20068;-70
2023/01/28 10:44:45;;;;;;;33.08;22.27;;;29.90;99.90;;;;;;5051939;28;20021;-69
2023/01/28 10:47:23;;;;;;;32.60;22.00;;;29.90;99.90;;;;;;5050589;28;20462;-70
2023/01/28 10:49:54;;;;;;;63.25;49.90;;;30.00;99.90;;;;;;5052984;28;20205;-69
2023/01/28 10:52:20;;;;;;;84.87;60.63;;;30.00;99.90;;;;;;5052560;28;20029;-70
2023/01/28 10:54:47;;;;;;;41.53;30.48;;;30.00;99.90;;;;;;5052215;28;20026;-69
2023/01/28 10:57:17;;;;;;;34.92;25.65;;;30.00;99.90;;;;;;5051673;28;20025;-69
2023/01/28 10:59:45;;;;;;;55.25;43.28;;;30.00;99.90;;;;;;5052429;28;20025;-68
2023/01/28 11:02:35;;;;;;;39.15;28.05;;;30.10;99.90;;;;;;5047643;28;20052;-71
2023/01/28 11:05:04;;;;;;;35.05;22.60;;;30.20;99.90;;;;;;5050364;28;20025;-70
2023/01/28 11:07:31;;;;;;;39.97;22.65;;;30.00;99.90;;;;;;5045813;28;20021;-70
2023/01/28 11:09:58;;;;;;;108.57;72.47;;;29.90;99.90;;;;;;5048930;28;20450;-71
2023/01/28 11:12:28;;;;;;;243.80;161.13;;;30.00;99.90;;;;;;5052476;28;20294;-72
2023/01/28 11:15:00;;;;;;;180.88;120.28;;;30.00;99.90;;;;;;5046613;28;20021;-68
2023/01/28 11:17:32;;;;;;;135.88;83.78;;;29.90;99.90;;;;;;5047937;28;20033;-70
2023/01/28 11:20:08;;;;;;;114.45;84.78;;;29.80;99.90;;;;;;5049624;28;20044;-72
2023/01/28 11:22:40;;;;;;;92.65;59.20;;;29.70;99.90;;;;;;5048488;28;20504;-71
2023/01/28 11:25:31;;;;;;;57.67;42.47;;;29.70;99.90;;;;;;5046901;28;20469;-68
2023/01/28 11:27:59;;;;;;;83.03;62.78;;;29.60;99.90;;;;;;5047841;28;20032;-76
2023/01/28 11:30:32;;;;;;;104.38;85.57;;;29.60;99.90;;;;;;5051794;28;20025;-76
2023/01/28 11:33:21;;;;;;;59.58;46.47;;;29.50;99.90;;;;;;5052747;28;20103;-73
2023/01/28 11:36:02;;;;;;;50.72;35.55;;;29.40;99.90;;;;;;5049581;28;20102;-71
2023/01/28 11:38:29;;;;;;;44.63;27.52;;;29.30;99.90;;;;;;5047787;28;20060;-76
2023/01/28 11:41:00;;;;;;;68.70;43.25;;;29.30;99.90;;;;;;5052300;28;20024;-74
2023/01/28 11:43:29;;;;;;;50.95;28.35;;;29.20;99.90;;;;;;5051347;28;20504;-75
2023/01/28 11:45:57;;;;;;;34.25;20.60;;;29.10;99.90;;;;;;5052558;28;20121;-74
2023/01/28 11:48:32;;;;;;;29.10;14.82;;;29.00;99.90;;;;;;5053062;28;20020;-76
2023/01/28 11:51:19;;;;;;;55.55;39.67;;;28.90;99.90;;;;;;5052690;28;20091;-73
2023/01/28 11:54:12;;;;;;;24.58;15.15;;;28.90;99.90;;;;;;5049747;28;20036;-72
2023/01/28 11:56:43;;;;;;;;;;;29.00;99.90;;;;;;5050110;28;20420;-74
2023/01/28 11:59:34;;;;;;;37.67;21.80;;;28.90;99.90;;;;;;5052860;28;19977;-79
2023/01/28 12:02:11;;;;;;;40.47;29.73;;;28.90;99.90;;;;;;5051311;28;20533;-72
2023/01/28 12:04:45;;;;;;;20.20;10.77;;;28.80;99.90;;;;;;5047564;28;20052;-75
2023/01/28 12:07:13;;;;;;;63.22;44.72;;;28.80;99.90;;;;;;5047545;28;20548;-78
2023/01/28 12:09:42;;;;;;;34.65;20.23;;;28.90;99.90;;;;;;5047068;28;20028;-78
2023/01/28 12:12:26;;;;;;;28.17;16.80;;;28.90;99.90;;;;;;5044556;28;20090;-75
2023/01/28 12:15:18;;;;;;;29.92;17.17;;;28.80;99.90;;;;;;5046065;28;20351;-79
2023/01/28 12:18:03;;;;;;;124.55;91.68;;;28.90;99.90;;;;;;5050786;28;20366;-78
2023/01/28 12:20:37;;;;;;;35.78;25.17;;;28.90;99.90;;;;;;5068542;28;20025;-76
2023/01/28 12:23:24;;;;;;;32.05;20.88;;;28.80;99.90;;;;;;5051458;28;20057;-78
2023/01/28 12:26:04;;;;;;;56.45;39.60;;;28.80;99.90;;;;;;5048911;28;20039;-78
2023/01/28 12:28:39;;;;;;;37.63;33.22;;;28.80;99.90;;;;;;5052891;28;20021;-80
2023/01/28 12:31:27;;;;;;;39.08;26.40;;;28.80;99.90;;;;;;5050819;28;20013;-76
2023/01/28 12:34:16;;;;;;;25.50;14.52;;;28.80;99.90;;;;;;5053784;28;20039;-76
2023/01/28 12:37:18;;;;;;;46.97;32.83;;;28.70;99.90;;;;;;5051532;28;20505;-78
2023/01/28 12:39:50;;;;;;;40.45;23.67;;;28.80;99.90;;;;;;5053251;28;20578;-77
2023/01/28 12:42:50;;;;;;;115.28;92.00;;;28.90;99.90;;;;;;5048750;28;20066;-75
2023/01/28 12:45:21;;;;;;;28.10;21.58;;;28.60;99.90;;;;;;5054173;28;20385;-77
2023/01/28 12:48:10;;;;;;;38.58;25.80;;;28.60;99.90;;;;;;5061333;23;20045;-73
2023/01/28 12:50:44;;;;;;;32.15;17.55;;;28.60;99.90;;;;;;5027672;28;20022;-74
2023/01/28 12:53:31;;;;;;;40.13;26.95;;;28.60;99.90;;;;;;5025778;28;20482;-74
2023/01/28 12:56:24;;;;;;;30.27;17.05;;;28.50;99.90;;;;;;5030306;28;20088;-73
2023/01/28 12:58:56;;;;;;;28.05;17.65;;;28.50;99.90;;;;;;5018972;28;20034;-73
2023/01/28 13:01:36;;;;;;;54.47;36.47;;;28.40;99.90;;;;;;5029937;28;20305;-73
2023/01/28 13:04:11;;;;;;;42.20;28.02;;;28.50;99.90;;;;;;5028910;28;20467;-75
2023/01/28 13:06:50;;;;;;;67.30;56.65;;;28.50;99.90;;;;;;5029218;28;20072;-73
2023/01/28 13:09:19;;;;;;;70.47;49.83;;;28.50;99.90;;;;;;5027204;28;20080;-73
2023/01/28 13:11:50;;;;;;;33.53;16.50;;;28.50;99.90;;;;;;5028817;28;20076;-73
2023/01/28 13:14:17;;;;;;;56.03;31.70;;;28.40;99.90;;;;;;5025300;28;20060;-76
2023/01/28 13:16:44;;;;;;;36.75;22.67;;;28.30;99.90;;;;;;5025827;28;20080;-76
2023/01/28 13:19:19;;;;;;;33.33;18.23;;;28.30;99.90;;;;;;5024437;28;20025;-72
2023/01/28 13:21:48;;;;;;;58.67;34.90;;;28.30;99.90;;;;;;5027259;28;20498;-77
2023/01/28 13:24:15;;;;;;;31.73;18.65;;;28.20;99.90;;;;;;5030439;28;20063;-74